WXM80 ListenWXM80 Stop

You find our weather info also at:

UK Metoffice

WeatherCloud

Weather Underground

Northeastern Weather Network

AWEKAS

Citizen Weather Observer Program (CWOP)

HAMweather, WeatherForYou, PWS Weather


Weather Underground History page Text

Daily Summary for May 13, 2017 Units:  Both    English   Metric
« Previous Day
Next Day »
Daily Weekly Monthly Yearly Custom
  High: Low: Average:
Temperature: 52.1 °F /  11.2 °C 45.7 °F /  7.6 °C 49.5 °F /  9.7 °C
Dew Point: 50.6 °F /  10.3 °C 44.9 °F /  7.2 °C 47.4 °F /  8.6 °C
Humidity: 97 % 83 % 93 %
Wind Speed: 15.6 mph /  25.1 km/h - 4.5 mph /  7.2 km/h
Wind Gust: 27.6 mph /  44.4 km/h - -
Wind:- - East
Pressure: 29.99 in /  1015.5 hPa 29.73 in /  1006.7 hPa -
Precipitation: 1.16 in /  29.46 mm    
Historical Graphs
 
 
Tabular Data for May 13, 2017
Time Temperature Dew Point Pressure Wind Wind Speed Wind Gust Humidity Rainfall Rate (Hourly)
00:04 52.1 °F /  11.2 °C 47.4 °F /  8.6 °C 29.99 in /  1015.5 hPa SE 0.1 mph /  0.2 km/h 2.3 mph /  3.7 km/h 84 % 0.00 in /  0 mm
00:10 52.1 °F /  11.2 °C 47.4 °F /  8.6 °C 29.99 in /  1015.5 hPa SSE 0.9 mph /  1.4 km/h 3.5 mph /  5.6 km/h 84 % 0.00 in /  0 mm
00:15 52.1 °F /  11.2 °C 47.1 °F /  8.4 °C 29.99 in /  1015.5 hPa SSE 0.6 mph /  1 km/h 3.5 mph /  5.6 km/h 83 % 0.00 in /  0 mm
00:20 52.1 °F /  11.2 °C 47.1 °F /  8.4 °C 29.99 in /  1015.5 hPa SSE 0.8 mph /  1.3 km/h 3.0 mph /  4.8 km/h 83 % 0.00 in /  0 mm
00:25 52.1 °F /  11.2 °C 47.1 °F /  8.4 °C 29.99 in /  1015.5 hPa SE 2.3 mph /  3.7 km/h 5.8 mph /  9.3 km/h 83 % 0.00 in /  0 mm
00:30 52.1 °F /  11.2 °C 47.1 °F /  8.4 °C 29.99 in /  1015.5 hPa SE 1.2 mph /  1.9 km/h 5.8 mph /  9.3 km/h 83 % 0.00 in /  0 mm
00:35 52.1 °F /  11.2 °C 47.1 °F /  8.4 °C 29.99 in /  1015.5 hPa Calm   1.2 mph /  1.9 km/h 83 % 0.00 in /  0 mm
00:40 52.1 °F /  11.2 °C 47.1 °F /  8.4 °C 29.99 in /  1015.5 hPa SE 0.3 mph /  0.5 km/h 2.3 mph /  3.7 km/h 83 % 0.00 in /  0 mm
00:45 52.1 °F /  11.2 °C 47.1 °F /  8.4 °C 29.99 in /  1015.5 hPa SE 0.5 mph /  0.8 km/h 2.3 mph /  3.7 km/h 83 % 0.00 in /  0 mm
00:50 52.0 °F /  11.1 °C 47.3 °F /  8.5 °C 29.98 in /  1015.1 hPa SSE 1.3 mph /  2.1 km/h 4.0 mph /  6.4 km/h 84 % 0.00 in /  0 mm
00:55 52.0 °F /  11.1 °C 47.0 °F /  8.3 °C 29.98 in /  1015.1 hPa SE 0.3 mph /  0.5 km/h 3.5 mph /  5.6 km/h 83 % 0.00 in /  0 mm
01:00 52.0 °F /  11.1 °C 47.0 °F /  8.3 °C 29.98 in /  1015.1 hPa SE 0.1 mph /  0.2 km/h 3.5 mph /  5.6 km/h 83 % 0.00 in /  0 mm
01:05 51.9 °F /  11.1 °C 46.9 °F /  8.3 °C 29.98 in /  1015.1 hPa Calm     83 % 0.00 in /  0 mm
01:10 51.9 °F /  11.1 °C 46.9 °F /  8.3 °C 29.98 in /  1015.1 hPa Calm   1.2 mph /  1.9 km/h 83 % 0.00 in /  0 mm
01:15 51.9 °F /  11.1 °C 47.2 °F /  8.4 °C 29.97 in /  1014.8 hPa Calm     84 % 0.00 in /  0 mm
01:20 51.9 °F /  11.1 °C 47.2 °F /  8.4 °C 29.97 in /  1014.8 hPa SSE 2.4 mph /  3.9 km/h 3.5 mph /  5.6 km/h 84 % 0.00 in /  0 mm
01:25 51.9 °F /  11.1 °C 47.2 °F /  8.4 °C 29.97 in /  1014.8 hPa Calm     84 % 0.00 in /  0 mm
01:30 51.8 °F /  11 °C 47.1 °F /  8.4 °C 29.97 in /  1014.8 hPa SSE 0.3 mph /  0.5 km/h 1.2 mph /  1.9 km/h 84 % 0.00 in /  0 mm
01:35 51.8 °F /  11 °C 46.8 °F /  8.2 °C 29.97 in /  1014.8 hPa SSE 1.8 mph /  2.9 km/h 3.5 mph /  5.6 km/h 83 % 0.00 in /  0 mm
01:40 51.8 °F /  11 °C 46.8 °F /  8.2 °C 29.97 in /  1014.8 hPa Calm   1.2 mph /  1.9 km/h 83 % 0.00 in /  0 mm
01:45 51.8 °F /  11 °C 46.8 °F /  8.2 °C 29.96 in /  1014.4 hPa Calm     83 % 0.00 in /  0 mm
01:50 51.8 °F /  11 °C 46.8 °F /  8.2 °C 29.96 in /  1014.4 hPa SE 0.3 mph /  0.5 km/h 2.3 mph /  3.7 km/h 83 % 0.00 in /  0 mm
01:55 51.7 °F /  10.9 °C 46.7 °F /  8.2 °C 29.96 in /  1014.4 hPa Calm   4.6 mph /  7.4 km/h 83 % 0.00 in /  0 mm
02:00 51.7 °F /  10.9 °C 47.0 °F /  8.3 °C 29.95 in /  1014.1 hPa SE 0.1 mph /  0.2 km/h 1.2 mph /  1.9 km/h 84 % 0.00 in /  0 mm
02:06 51.7 °F /  10.9 °C 47.0 °F /  8.3 °C 29.96 in /  1014.4 hPa SE 2.0 mph /  3.2 km/h 6.0 mph /  9.7 km/h 84 % 0.00 in /  0 mm
02:11 51.6 °F /  10.9 °C 46.6 °F /  8.1 °C 29.95 in /  1014.1 hPa Calm   3.0 mph /  4.8 km/h 83 % 0.00 in /  0 mm
02:16 51.6 °F /  10.9 °C 46.6 °F /  8.1 °C 29.95 in /  1014.1 hPa Calm   2.3 mph /  3.7 km/h 83 % 0.00 in /  0 mm
02:21 51.6 °F /  10.9 °C 46.6 °F /  8.1 °C 29.96 in /  1014.4 hPa Calm   1.2 mph /  1.9 km/h 83 % 0.00 in /  0 mm
02:26 51.6 °F /  10.9 °C 46.6 °F /  8.1 °C 29.96 in /  1014.4 hPa Calm   3.5 mph /  5.6 km/h 83 % 0.00 in /  0 mm
02:31 51.5 °F /  10.8 °C 46.5 °F /  8.1 °C 29.95 in /  1014.1 hPa Calm     83 % 0.00 in /  0 mm
02:36 51.5 °F /  10.8 °C 46.5 °F /  8.1 °C 29.95 in /  1014.1 hPa Calm     83 % 0.00 in /  0 mm
02:41 51.5 °F /  10.8 °C 46.8 °F /  8.2 °C 29.95 in /  1014.1 hPa Calm     84 % 0.00 in /  0 mm
02:46 51.5 °F /  10.8 °C 46.8 °F /  8.2 °C 29.95 in /  1014.1 hPa Calm   1.0 mph /  1.6 km/h 84 % 0.00 in /  0 mm
02:51 51.4 °F /  10.8 °C 46.4 °F /  8 °C 29.95 in /  1014.1 hPa Calm   1.2 mph /  1.9 km/h 83 % 0.00 in /  0 mm
02:54 51.5 °F /  10.8 °C 46.8 °F /  8.2 °C 29.95 in /  1014.1 hPa Calm     84 % 0.00 in /  0 mm
02:59 51.4 °F /  10.8 °C 46.7 °F /  8.2 °C 29.95 in /  1014.1 hPa Calm     84 % 0.00 in /  0 mm
03:04 51.4 °F /  10.8 °C 46.4 °F /  8 °C 29.95 in /  1014.1 hPa Calm   1.2 mph /  1.9 km/h 83 % 0.00 in /  0 mm
03:09 51.4 °F /  10.8 °C 46.7 °F /  8.2 °C 29.95 in /  1014.1 hPa Calm     84 % 0.00 in /  0 mm
03:14 51.4 °F /  10.8 °C 46.7 °F /  8.2 °C 29.95 in /  1014.1 hPa SSE 1.3 mph /  2.1 km/h 2.3 mph /  3.7 km/h 84 % 0.00 in /  0 mm
03:19 51.4 °F /  10.8 °C 46.7 °F /  8.2 °C 29.95 in /  1014.1 hPa SSE 0.8 mph /  1.3 km/h 2.3 mph /  3.7 km/h 84 % 0.00 in /  0 mm
03:24 51.4 °F /  10.8 °C 46.7 °F /  8.2 °C 29.95 in /  1014.1 hPa SSE 0.8 mph /  1.3 km/h 1.2 mph /  1.9 km/h 84 % 0.00 in /  0 mm
03:29 51.4 °F /  10.8 °C 46.7 °F /  8.2 °C 29.95 in /  1014.1 hPa SSE 0.1 mph /  0.2 km/h 1.2 mph /  1.9 km/h 84 % 0.00 in /  0 mm
03:34 51.4 °F /  10.8 °C 47.0 °F /  8.3 °C 29.95 in /  1014.1 hPa Calm   2.3 mph /  3.7 km/h 85 % 0.00 in /  0 mm
03:39 51.3 °F /  10.7 °C 46.9 °F /  8.3 °C 29.95 in /  1014.1 hPa SSE 1.4 mph /  2.3 km/h 3.0 mph /  4.8 km/h 85 % 0.00 in /  0 mm
03:45 51.3 °F /  10.7 °C 46.9 °F /  8.3 °C 29.95 in /  1014.1 hPa Calm     85 % 0.00 in /  0 mm
03:50 51.3 °F /  10.7 °C 46.9 °F /  8.3 °C 29.94 in /  1013.8 hPa Calm   2.3 mph /  3.7 km/h 85 % 0.00 in /  0 mm
03:55 51.3 °F /  10.7 °C 46.9 °F /  8.3 °C 29.95 in /  1014.1 hPa SSE 0.4 mph /  0.6 km/h 2.3 mph /  3.7 km/h 85 % 0.00 in /  0 mm
04:00 51.2 °F /  10.7 °C 46.8 °F /  8.2 °C 29.94 in /  1013.8 hPa SSE 0.3 mph /  0.5 km/h 2.3 mph /  3.7 km/h 85 % 0.00 in /  0 mm
04:05 51.2 °F /  10.7 °C 46.8 °F /  8.2 °C 29.94 in /  1013.8 hPa Calm   1.2 mph /  1.9 km/h 85 % 0.00 in /  0 mm
04:10 51.2 °F /  10.7 °C 46.8 °F /  8.2 °C 29.94 in /  1013.8 hPa SSE 0.2 mph /  0.3 km/h 1.2 mph /  1.9 km/h 85 % 0.00 in /  0 mm
04:15 51.2 °F /  10.7 °C 46.8 °F /  8.2 °C 29.94 in /  1013.8 hPa SSE 1.6 mph /  2.6 km/h 4.6 mph /  7.4 km/h 85 % 0.00 in /  0 mm
04:20 51.2 °F /  10.7 °C 46.8 °F /  8.2 °C 29.94 in /  1013.8 hPa SSE 1.3 mph /  2.1 km/h 3.5 mph /  5.6 km/h 85 % 0.00 in /  0 mm
04:25 51.2 °F /  10.7 °C 46.8 °F /  8.2 °C 29.94 in /  1013.8 hPa SSE 1.1 mph /  1.8 km/h 4.0 mph /  6.4 km/h 85 % 0.00 in /  0 mm
04:30 51.1 °F /  10.6 °C 46.7 °F /  8.2 °C 29.94 in /  1013.8 hPa SE 1.7 mph /  2.7 km/h 3.5 mph /  5.6 km/h 85 % 0.00 in /  0 mm
04:35 51.1 °F /  10.6 °C 46.7 °F /  8.2 °C 29.94 in /  1013.8 hPa Calm   1.2 mph /  1.9 km/h 85 % 0.00 in /  0 mm
04:40 51.0 °F /  10.6 °C 46.6 °F /  8.1 °C 29.94 in /  1013.8 hPa SSE 1.0 mph /  1.6 km/h 3.5 mph /  5.6 km/h 85 % 0.00 in /  0 mm
04:45 51.0 °F /  10.6 °C 46.6 °F /  8.1 °C 29.93 in /  1013.4 hPa Calm   1.2 mph /  1.9 km/h 85 % 0.00 in /  0 mm
04:50 50.9 °F /  10.5 °C 46.6 °F /  8.1 °C 29.93 in /  1013.4 hPa SE 0.9 mph /  1.4 km/h 2.3 mph /  3.7 km/h 85 % 0.00 in /  0 mm
04:55 50.9 °F /  10.5 °C 46.6 °F /  8.1 °C 29.93 in /  1013.4 hPa SE 0.3 mph /  0.5 km/h 1.2 mph /  1.9 km/h 85 % 0.00 in /  0 mm
05:00 50.8 °F /  10.4 °C 46.5 °F /  8.1 °C 29.93 in /  1013.4 hPa Calm   1.2 mph /  1.9 km/h 85 % 0.00 in /  0 mm
05:05 50.8 °F /  10.4 °C 46.8 °F /  8.2 °C 29.93 in /  1013.4 hPa Calm   1.2 mph /  1.9 km/h 86 % 0.00 in /  0 mm
05:10 50.8 °F /  10.4 °C 46.8 °F /  8.2 °C 29.93 in /  1013.4 hPa SE 0.4 mph /  0.6 km/h 2.3 mph /  3.7 km/h 86 % 0.00 in /  0 mm
05:15 50.7 °F /  10.4 °C 46.7 °F /  8.2 °C 29.93 in /  1013.4 hPa SE 0.1 mph /  0.2 km/h 1.2 mph /  1.9 km/h 86 % 0.00 in /  0 mm
05:20 50.7 °F /  10.4 °C 46.7 °F /  8.2 °C 29.93 in /  1013.4 hPa Calm     86 % 0.00 in /  0 mm
05:25 50.6 °F /  10.3 °C 46.6 °F /  8.1 °C 29.93 in /  1013.4 hPa SE 0.5 mph /  0.8 km/h 2.3 mph /  3.7 km/h 86 % 0.00 in /  0 mm
05:30 50.5 °F /  10.3 °C 46.8 °F /  8.2 °C 29.93 in /  1013.4 hPa Calm     87 % 0.00 in /  0 mm
05:35 50.5 °F /  10.3 °C 46.8 °F /  8.2 °C 29.93 in /  1013.4 hPa Calm     87 % 0.00 in /  0 mm
05:40 50.4 °F /  10.2 °C 47.0 °F /  8.3 °C 29.93 in /  1013.4 hPa SE 0.3 mph /  0.5 km/h 1.2 mph /  1.9 km/h 88 % 0.00 in /  0 mm
05:45 50.4 °F /  10.2 °C 47.0 °F /  8.3 °C 29.93 in /  1013.4 hPa Calm   1.2 mph /  1.9 km/h 88 % 0.00 in /  0 mm
05:50 50.4 °F /  10.2 °C 47.3 °F /  8.5 °C 29.93 in /  1013.4 hPa SE 0.6 mph /  1 km/h 2.3 mph /  3.7 km/h 89 % 0.00 in /  0 mm
05:55 50.3 °F /  10.2 °C 47.2 °F /  8.4 °C 29.93 in /  1013.4 hPa SE 0.2 mph /  0.3 km/h 1.2 mph /  1.9 km/h 89 % 0.00 in /  0 mm
06:00 50.3 °F /  10.2 °C 47.2 °F /  8.4 °C 29.92 in /  1013.1 hPa SE 0.1 mph /  0.2 km/h 1.2 mph /  1.9 km/h 89 % 0.00 in /  0 mm
06:05 50.2 °F /  10.1 °C 47.1 °F /  8.4 °C 29.93 in /  1013.4 hPa SE 0.3 mph /  0.5 km/h 2.3 mph /  3.7 km/h 89 % 0.00 in /  0 mm
06:10 50.1 °F /  10.1 °C 47.0 °F /  8.3 °C 29.93 in /  1013.4 hPa SE 0.1 mph /  0.2 km/h 1.2 mph /  1.9 km/h 89 % 0.00 in /  0 mm
06:15 50.1 °F /  10.1 °C 46.7 °F /  8.2 °C 29.93 in /  1013.4 hPa SE 0.5 mph /  0.8 km/h 1.2 mph /  1.9 km/h 88 % 0.00 in /  0 mm
06:20 50.1 °F /  10.1 °C 47.0 °F /  8.3 °C 29.92 in /  1013.1 hPa SE 0.2 mph /  0.3 km/h 1.2 mph /  1.9 km/h 89 % 0.00 in /  0 mm
06:25 50.1 °F /  10.1 °C 47.0 °F /  8.3 °C 29.92 in /  1013.1 hPa SE 0.9 mph /  1.4 km/h 2.0 mph /  3.2 km/h 89 % 0.00 in /  0 mm
06:30 50.0 °F /  10 °C 46.9 °F /  8.3 °C 29.92 in /  1013.1 hPa SE 1.0 mph /  1.6 km/h 2.3 mph /  3.7 km/h 89 % 0.00 in /  0 mm
06:35 50.0 °F /  10 °C 46.9 °F /  8.3 °C 29.92 in /  1013.1 hPa SE 1.0 mph /  1.6 km/h 2.3 mph /  3.7 km/h 89 % 0.00 in /  0 mm
06:40 50.0 °F /  10 °C 47.2 °F /  8.4 °C 29.92 in /  1013.1 hPa SE 1.1 mph /  1.8 km/h 2.3 mph /  3.7 km/h 90 % 0.00 in /  0 mm
06:46 49.9 °F /  9.9 °C 47.1 °F /  8.4 °C 29.92 in /  1013.1 hPa SE 0.5 mph /  0.8 km/h 3.5 mph /  5.6 km/h 90 % 0.00 in /  0 mm
06:51 49.9 °F /  9.9 °C 47.1 °F /  8.4 °C 29.92 in /  1013.1 hPa Calm   1.0 mph /  1.6 km/h 90 % 0.00 in /  0 mm
06:56 49.9 °F /  9.9 °C 47.4 °F /  8.6 °C 29.92 in /  1013.1 hPa Calm   2.0 mph /  3.2 km/h 91 % 0.00 in /  0 mm
07:01 50.0 °F /  10 °C 47.5 °F /  8.6 °C 29.92 in /  1013.1 hPa SE 0.1 mph /  0.2 km/h 1.2 mph /  1.9 km/h 91 % 0.00 in /  0 mm
07:06 49.9 °F /  9.9 °C 47.4 °F /  8.6 °C 29.92 in /  1013.1 hPa SE 0.1 mph /  0.2 km/h 2.3 mph /  3.7 km/h 91 % 0.00 in /  0 mm
07:11 49.9 °F /  9.9 °C 47.4 °F /  8.6 °C 29.92 in /  1013.1 hPa SE 0.5 mph /  0.8 km/h 2.3 mph /  3.7 km/h 91 % 0.00 in /  0 mm
07:16 49.9 °F /  9.9 °C 47.4 °F /  8.6 °C 29.92 in /  1013.1 hPa East 0.7 mph /  1.1 km/h 2.3 mph /  3.7 km/h 91 % 0.00 in /  0 mm
07:21 49.9 °F /  9.9 °C 47.4 °F /  8.6 °C 29.91 in /  1012.8 hPa East 0.5 mph /  0.8 km/h 2.3 mph /  3.7 km/h 91 % 0.00 in /  0 mm
07:26 49.9 °F /  9.9 °C 47.4 °F /  8.6 °C 29.91 in /  1012.8 hPa East 0.9 mph /  1.4 km/h 3.5 mph /  5.6 km/h 91 % 0.00 in /  0 mm
07:31 49.9 °F /  9.9 °C 47.4 °F /  8.6 °C 29.91 in /  1012.8 hPa East 0.8 mph /  1.3 km/h 2.3 mph /  3.7 km/h 91 % 0.00 in /  0 mm
07:36 50.0 °F /  10 °C 47.8 °F /  8.8 °C 29.91 in /  1012.8 hPa East 1.8 mph /  2.9 km/h 3.0 mph /  4.8 km/h 92 % 0.00 in /  0 mm
07:41 50.0 °F /  10 °C 47.8 °F /  8.8 °C 29.91 in /  1012.8 hPa East 1.4 mph /  2.3 km/h 3.5 mph /  5.6 km/h 92 % 0.00 in /  0 mm
07:46 50.1 °F /  10.1 °C 47.9 °F /  8.8 °C 29.91 in /  1012.8 hPa East 1.4 mph /  2.3 km/h 2.3 mph /  3.7 km/h 92 % 0.00 in /  0 mm
07:51 50.1 °F /  10.1 °C 47.9 °F /  8.8 °C 29.91 in /  1012.8 hPa East 2.1 mph /  3.4 km/h 3.5 mph /  5.6 km/h 92 % 0.01 in /  0.25 mm
07:56 50.1 °F /  10.1 °C 47.9 °F /  8.8 °C 29.91 in /  1012.8 hPa East 1.6 mph /  2.6 km/h 3.5 mph /  5.6 km/h 92 % 0.01 in /  0.25 mm
08:01 50.1 °F /  10.1 °C 47.9 °F /  8.8 °C 29.91 in /  1012.8 hPa ESE 1.8 mph /  2.9 km/h 2.3 mph /  3.7 km/h 92 % 0.01 in /  0.25 mm
08:06 50.0 °F /  10 °C 47.8 °F /  8.8 °C 29.91 in /  1012.8 hPa ENE 2.2 mph /  3.5 km/h 3.5 mph /  5.6 km/h 92 % 0.01 in /  0.25 mm
08:11 49.9 °F /  9.9 °C 47.7 °F /  8.7 °C 29.91 in /  1012.8 hPa East 1.7 mph /  2.7 km/h 3.5 mph /  5.6 km/h 92 % 0.01 in /  0.25 mm
08:16 49.9 °F /  9.9 °C 48.0 °F /  8.9 °C 29.91 in /  1012.8 hPa East 1.3 mph /  2.1 km/h 3.0 mph /  4.8 km/h 93 % 0.01 in /  0.25 mm
08:21 49.8 °F /  9.9 °C 47.9 °F /  8.8 °C 29.91 in /  1012.8 hPa East 1.3 mph /  2.1 km/h 2.3 mph /  3.7 km/h 93 % 0.01 in /  0.25 mm
08:26 49.9 °F /  9.9 °C 48.0 °F /  8.9 °C 29.91 in /  1012.8 hPa East 1.5 mph /  2.4 km/h 2.3 mph /  3.7 km/h 93 % 0.02 in /  0.51 mm
08:32 50.0 °F /  10 °C 48.1 °F /  8.9 °C 29.91 in /  1012.8 hPa East 1.2 mph /  1.9 km/h 2.3 mph /  3.7 km/h 93 % 0.02 in /  0.51 mm
08:33 50.0 °F /  10 °C 48.1 °F /  8.9 °C 29.91 in /  1012.8 hPa East 1.6 mph /  2.6 km/h 3.0 mph /  4.8 km/h 93 % 0.02 in /  0.51 mm
08:38 50.0 °F /  10 °C 48.1 °F /  8.9 °C 29.91 in /  1012.8 hPa East 1.4 mph /  2.3 km/h 3.5 mph /  5.6 km/h 93 % 0.02 in /  0.51 mm
08:43 50.0 °F /  10 °C 48.1 °F /  8.9 °C 29.91 in /  1012.8 hPa East 1.5 mph /  2.4 km/h 3.5 mph /  5.6 km/h 93 % 0.02 in /  0.51 mm
08:48 50.0 °F /  10 °C 48.1 °F /  8.9 °C 29.92 in /  1013.1 hPa East 1.2 mph /  1.9 km/h 2.3 mph /  3.7 km/h 93 % 0.01 in /  0.25 mm
08:53 50.0 °F /  10 °C 48.3 °F /  9.1 °C 29.92 in /  1013.1 hPa East 1.1 mph /  1.8 km/h 2.3 mph /  3.7 km/h 94 % 0.01 in /  0.25 mm
08:58 50.0 °F /  10 °C 48.3 °F /  9.1 °C 29.92 in /  1013.1 hPa East 0.4 mph /  0.6 km/h 1.2 mph /  1.9 km/h 94 % 0.02 in /  0.51 mm
09:03 50.1 °F /  10.1 °C 48.4 °F /  9.1 °C 29.91 in /  1012.8 hPa East 0.9 mph /  1.4 km/h 2.3 mph /  3.7 km/h 94 % 0.02 in /  0.51 mm
09:08 50.1 °F /  10.1 °C 48.4 °F /  9.1 °C 29.91 in /  1012.8 hPa East 1.1 mph /  1.8 km/h 2.3 mph /  3.7 km/h 94 % 0.02 in /  0.51 mm
09:13 50.1 °F /  10.1 °C 48.4 °F /  9.1 °C 29.91 in /  1012.8 hPa East 1.1 mph /  1.8 km/h 2.3 mph /  3.7 km/h 94 % 0.03 in /  0.76 mm
09:18 50.2 °F /  10.1 °C 48.5 °F /  9.2 °C 29.91 in /  1012.8 hPa East 1.1 mph /  1.8 km/h 2.3 mph /  3.7 km/h 94 % 0.03 in /  0.76 mm
09:23 50.3 °F /  10.2 °C 48.6 °F /  9.2 °C 29.91 in /  1012.8 hPa East 1.4 mph /  2.3 km/h 2.3 mph /  3.7 km/h 94 % 0.02 in /  0.51 mm
09:28 50.2 °F /  10.1 °C 48.5 °F /  9.2 °C 29.91 in /  1012.8 hPa East 0.8 mph /  1.3 km/h 2.3 mph /  3.7 km/h 94 % 0.03 in /  0.76 mm
09:33 50.3 °F /  10.2 °C 48.6 °F /  9.2 °C 29.91 in /  1012.8 hPa East 0.4 mph /  0.6 km/h 1.2 mph /  1.9 km/h 94 % 0.03 in /  0.76 mm
09:34 50.3 °F /  10.2 °C 48.6 °F /  9.2 °C 29.91 in /  1012.8 hPa East 1.0 mph /  1.6 km/h 2.3 mph /  3.7 km/h 94 % 0.03 in /  0.76 mm
09:39 50.3 °F /  10.2 °C 48.6 °F /  9.2 °C 29.91 in /  1012.8 hPa East 1.0 mph /  1.6 km/h 2.3 mph /  3.7 km/h 94 % 0.04 in /  1.02 mm
09:44 50.3 °F /  10.2 °C 48.6 °F /  9.2 °C 29.91 in /  1012.8 hPa ESE 0.9 mph /  1.4 km/h 2.3 mph /  3.7 km/h 94 % 0.04 in /  1.02 mm
09:49 50.4 °F /  10.2 °C 49.0 °F /  9.4 °C 29.91 in /  1012.8 hPa NE 0.5 mph /  0.8 km/h 2.0 mph /  3.2 km/h 95 % 0.04 in /  1.02 mm
09:54 50.4 °F /  10.2 °C 49.0 °F /  9.4 °C 29.91 in /  1012.8 hPa ENE 1.5 mph /  2.4 km/h 2.3 mph /  3.7 km/h 95 % 0.04 in /  1.02 mm
09:59 50.4 °F /  10.2 °C 49.0 °F /  9.4 °C 29.91 in /  1012.8 hPa ENE 1.8 mph /  2.9 km/h 3.5 mph /  5.6 km/h 95 % 0.04 in /  1.02 mm
10:04 50.5 °F /  10.3 °C 49.1 °F /  9.5 °C 29.91 in /  1012.8 hPa ENE 1.7 mph /  2.7 km/h 3.5 mph /  5.6 km/h 95 % 0.05 in /  1.27 mm
10:09 50.6 °F /  10.3 °C 49.2 °F /  9.6 °C 29.91 in /  1012.8 hPa ENE 1.7 mph /  2.7 km/h 3.0 mph /  4.8 km/h 95 % 0.05 in /  1.27 mm
10:10 50.6 °F /  10.3 °C 49.2 °F /  9.6 °C 29.91 in /  1012.8 hPa ENE 2.3 mph /  3.7 km/h 4.0 mph /  6.4 km/h 95 % 0.04 in /  1.02 mm
10:15 50.6 °F /  10.3 °C 49.2 °F /  9.6 °C 29.91 in /  1012.8 hPa ENE 2.1 mph /  3.4 km/h 3.5 mph /  5.6 km/h 95 % 0.05 in /  1.27 mm
10:20 50.6 °F /  10.3 °C 49.2 °F /  9.6 °C 29.91 in /  1012.8 hPa ENE 2.0 mph /  3.2 km/h 3.5 mph /  5.6 km/h 95 % 0.06 in /  1.52 mm
10:25 50.6 °F /  10.3 °C 49.2 °F /  9.6 °C 29.91 in /  1012.8 hPa ENE 2.5 mph /  4 km/h 4.0 mph /  6.4 km/h 95 % 0.06 in /  1.52 mm
10:30 50.6 °F /  10.3 °C 49.2 °F /  9.6 °C 29.91 in /  1012.8 hPa ENE 2.1 mph /  3.4 km/h 4.0 mph /  6.4 km/h 95 % 0.05 in /  1.27 mm
10:36 50.6 °F /  10.3 °C 49.2 °F /  9.6 °C 29.91 in /  1012.8 hPa ENE 3.0 mph /  4.8 km/h 8.0 mph /  12.9 km/h 95 % 0.00 in /  0 mm
10:41 50.5 °F /  10.3 °C 49.1 °F /  9.5 °C 29.91 in /  1012.8 hPa ENE 2.0 mph /  3.2 km/h 5.0 mph /  8 km/h 95 % 0.00 in /  0 mm
10:46 50.4 °F /  10.2 °C 49.0 °F /  9.4 °C 29.91 in /  1012.8 hPa ENE 2.0 mph /  3.2 km/h 7.0 mph /  11.3 km/h 95 % 0.00 in /  0 mm
10:51 50.3 °F /  10.2 °C 48.9 °F /  9.4 °C 29.91 in /  1012.8 hPa ENE 3.0 mph /  4.8 km/h 5.0 mph /  8 km/h 95 % 0.00 in /  0 mm
10:56 50.2 °F /  10.1 °C 48.8 °F /  9.3 °C 29.90 in /  1012.4 hPa ENE 5.0 mph /  8 km/h 8.0 mph /  12.9 km/h 95 % 0.00 in /  0 mm
11:01 50.3 °F /  10.2 °C 49.2 °F /  9.6 °C 29.90 in /  1012.4 hPa ENE 3.2 mph /  5.1 km/h 4.0 mph /  6.4 km/h 96 % 0.06 in /  1.52 mm
11:06 50.2 °F /  10.1 °C 49.1 °F /  9.5 °C 29.90 in /  1012.4 hPa ENE 4.1 mph /  6.6 km/h 5.8 mph /  9.3 km/h 96 % 0.06 in /  1.52 mm
11:11 50.2 °F /  10.1 °C 48.8 °F /  9.3 °C 29.90 in /  1012.4 hPa ENE 2.9 mph /  4.7 km/h 4.6 mph /  7.4 km/h 95 % 0.06 in /  1.52 mm
11:16 50.2 °F /  10.1 °C 49.1 °F /  9.5 °C 29.90 in /  1012.4 hPa East 3.2 mph /  5.1 km/h 4.6 mph /  7.4 km/h 96 % 0.06 in /  1.52 mm
11:18 50.3 °F /  10.2 °C 49.2 °F /  9.6 °C 29.90 in /  1012.4 hPa East 2.5 mph /  4 km/h 4.6 mph /  7.4 km/h 96 % 0.07 in /  1.78 mm
11:23 50.2 °F /  10.1 °C 49.1 °F /  9.5 °C 29.90 in /  1012.4 hPa ENE 3.1 mph /  5 km/h 4.6 mph /  7.4 km/h 96 % 0.06 in /  1.52 mm
11:28 50.2 °F /  10.1 °C 49.1 °F /  9.5 °C 29.90 in /  1012.4 hPa East 2.9 mph /  4.7 km/h 5.8 mph /  9.3 km/h 96 % 0.06 in /  1.52 mm
11:33 50.3 °F /  10.2 °C 49.2 °F /  9.6 °C 29.90 in /  1012.4 hPa East 3.4 mph /  5.5 km/h 4.6 mph /  7.4 km/h 96 % 0.06 in /  1.52 mm
11:38 50.4 °F /  10.2 °C 49.3 °F /  9.6 °C 29.90 in /  1012.4 hPa East 3.1 mph /  5 km/h 4.6 mph /  7.4 km/h 96 % 0.06 in /  1.52 mm
11:43 50.5 °F /  10.3 °C 49.4 °F /  9.7 °C 29.89 in /  1012.1 hPa ENE 2.5 mph /  4 km/h 3.5 mph /  5.6 km/h 96 % 0.06 in /  1.52 mm
11:48 50.5 °F /  10.3 °C 49.4 °F /  9.7 °C 29.89 in /  1012.1 hPa ENE 2.5 mph /  4 km/h 4.6 mph /  7.4 km/h 96 % 0.05 in /  1.27 mm
11:53 50.5 °F /  10.3 °C 49.4 °F /  9.7 °C 29.89 in /  1012.1 hPa ENE 2.6 mph /  4.2 km/h 4.6 mph /  7.4 km/h 96 % 0.05 in /  1.27 mm
11:58 50.6 °F /  10.3 °C 49.5 °F /  9.7 °C 29.89 in /  1012.1 hPa East 3.4 mph /  5.5 km/h 5.0 mph /  8 km/h 96 % 0.04 in /  1.02 mm
12:03 50.8 °F /  10.4 °C 49.7 °F /  9.8 °C 29.89 in /  1012.1 hPa East 3.0 mph /  4.8 km/h 5.0 mph /  8 km/h 96 % 0.04 in /  1.02 mm
12:08 51.0 °F /  10.6 °C 49.9 °F /  9.9 °C 29.88 in /  1011.7 hPa ESE 3.3 mph /  5.3 km/h 6.9 mph /  11.1 km/h 96 % 0.04 in /  1.02 mm
12:13 51.3 °F /  10.7 °C 50.5 °F /  10.3 °C 29.88 in /  1011.7 hPa East 3.9 mph /  6.3 km/h 5.8 mph /  9.3 km/h 97 % 0.03 in /  0.76 mm
12:18 51.4 °F /  10.8 °C 50.6 °F /  10.3 °C 29.88 in /  1011.7 hPa East 3.8 mph /  6.1 km/h 6.0 mph /  9.7 km/h 97 % 0.02 in /  0.51 mm
12:23 51.3 °F /  10.7 °C 50.2 °F /  10.1 °C 29.88 in /  1011.7 hPa ENE 3.4 mph /  5.5 km/h 5.8 mph /  9.3 km/h 96 % 0.02 in /  0.51 mm
12:28 51.3 °F /  10.7 °C 50.2 °F /  10.1 °C 29.88 in /  1011.7 hPa East 3.9 mph /  6.3 km/h 6.0 mph /  9.7 km/h 96 % 0.02 in /  0.51 mm
12:33 51.4 °F /  10.8 °C 50.3 °F /  10.2 °C 29.88 in /  1011.7 hPa East 3.2 mph /  5.1 km/h 4.6 mph /  7.4 km/h 96 % 0.01 in /  0.25 mm
12:38 51.4 °F /  10.8 °C 50.3 °F /  10.2 °C 29.88 in /  1011.7 hPa ESE 4.6 mph /  7.4 km/h 4.6 mph /  7.4 km/h 96 % 0.01 in /  0.25 mm
12:43 51.4 °F /  10.8 °C 50.3 °F /  10.2 °C 29.88 in /  1011.7 hPa East 3.9 mph /  6.3 km/h 5.8 mph /  9.3 km/h 96 % 0.01 in /  0.25 mm
12:48 51.3 °F /  10.7 °C 50.2 °F /  10.1 °C 29.88 in /  1011.7 hPa ESE 3.9 mph /  6.3 km/h 6.9 mph /  11.1 km/h 96 % 0.01 in /  0.25 mm
12:53 51.1 °F /  10.6 °C 50.0 °F /  10 °C 29.88 in /  1011.7 hPa East 4.1 mph /  6.6 km/h 6.9 mph /  11.1 km/h 96 % 0.01 in /  0.25 mm
12:58 51.0 °F /  10.6 °C 49.9 °F /  9.9 °C 29.88 in /  1011.7 hPa East 4.4 mph /  7.1 km/h 6.0 mph /  9.7 km/h 96 % 0.01 in /  0.25 mm
13:04 51.0 °F /  10.6 °C 49.9 °F /  9.9 °C 29.88 in /  1011.7 hPa East 3.3 mph /  5.3 km/h 5.8 mph /  9.3 km/h 96 % 0.01 in /  0.25 mm
13:09 51.0 °F /  10.6 °C 49.9 °F /  9.9 °C 29.88 in /  1011.7 hPa East 3.8 mph /  6.1 km/h 6.0 mph /  9.7 km/h 96 % 0.00 in /  0 mm
13:14 51.0 °F /  10.6 °C 49.9 °F /  9.9 °C 29.88 in /  1011.7 hPa SE 4.3 mph /  6.9 km/h 6.0 mph /  9.7 km/h 96 % 0.01 in /  0.25 mm
13:16 50.9 °F /  10.5 °C 49.8 °F /  9.9 °C 29.88 in /  1011.7 hPa East 3.6 mph /  5.8 km/h 6.9 mph /  11.1 km/h 96 % 0.01 in /  0.25 mm
13:21 50.8 °F /  10.4 °C 49.7 °F /  9.8 °C 29.87 in /  1011.4 hPa East 3.1 mph /  5 km/h 5.8 mph /  9.3 km/h 96 % 0.01 in /  0.25 mm
13:26 50.7 °F /  10.4 °C 49.3 °F /  9.6 °C 29.87 in /  1011.4 hPa East 3.1 mph /  5 km/h 5.0 mph /  8 km/h 95 % 0.02 in /  0.51 mm
13:31 50.7 °F /  10.4 °C 49.6 °F /  9.8 °C 29.87 in /  1011.4 hPa East 4.2 mph /  6.8 km/h 5.0 mph /  8 km/h 96 % 0.02 in /  0.51 mm
13:36 50.6 °F /  10.3 °C 49.2 °F /  9.6 °C 29.86 in /  1011.1 hPa East 3.3 mph /  5.3 km/h 5.8 mph /  9.3 km/h 95 % 0.03 in /  0.76 mm
13:41 50.6 °F /  10.3 °C 49.5 °F /  9.7 °C 29.86 in /  1011.1 hPa East 3.1 mph /  5 km/h 5.8 mph /  9.3 km/h 96 % 0.04 in /  1.02 mm
13:46 50.6 °F /  10.3 °C 49.5 °F /  9.7 °C 29.85 in /  1010.7 hPa ENE 2.4 mph /  3.9 km/h 4.6 mph /  7.4 km/h 96 % 0.04 in /  1.02 mm
13:51 50.6 °F /  10.3 °C 49.5 °F /  9.7 °C 29.85 in /  1010.7 hPa ENE 2.2 mph /  3.5 km/h 3.5 mph /  5.6 km/h 96 % 0.05 in /  1.27 mm
13:56 50.8 °F /  10.4 °C 49.7 °F /  9.8 °C 29.85 in /  1010.7 hPa ESE 4.2 mph /  6.8 km/h 5.8 mph /  9.3 km/h 96 % 0.06 in /  1.52 mm
14:01 50.8 °F /  10.4 °C 49.7 °F /  9.8 °C 29.85 in /  1010.7 hPa East 2.9 mph /  4.7 km/h 4.6 mph /  7.4 km/h 96 % 0.06 in /  1.52 mm
14:06 50.8 °F /  10.4 °C 49.7 °F /  9.8 °C 29.85 in /  1010.7 hPa ENE 3.0 mph /  4.8 km/h 6.9 mph /  11.1 km/h 96 % 0.07 in /  1.78 mm
14:11 50.6 °F /  10.3 °C 49.5 °F /  9.7 °C 29.85 in /  1010.7 hPa East 3.6 mph /  5.8 km/h 5.8 mph /  9.3 km/h 96 % 0.08 in /  2.03 mm
14:16 50.8 °F /  10.4 °C 49.7 °F /  9.8 °C 29.85 in /  1010.7 hPa East 3.0 mph /  4.8 km/h 5.8 mph /  9.3 km/h 96 % 0.08 in /  2.03 mm
14:21 50.7 °F /  10.4 °C 49.6 °F /  9.8 °C 29.84 in /  1010.4 hPa East 2.7 mph /  4.3 km/h 4.6 mph /  7.4 km/h 96 % 0.09 in /  2.29 mm
14:26 50.6 °F /  10.3 °C 49.5 °F /  9.7 °C 29.84 in /  1010.4 hPa East 4.5 mph /  7.2 km/h 6.0 mph /  9.7 km/h 96 % 0.09 in /  2.29 mm
14:30 50.6 °F /  10.3 °C 49.5 °F /  9.7 °C 29.83 in /  1010 hPa East 4.3 mph /  6.9 km/h 5.8 mph /  9.3 km/h 96 % 0.10 in /  2.54 mm
14:35 50.5 °F /  10.3 °C 49.4 °F /  9.7 °C 29.83 in /  1010 hPa East 3.3 mph /  5.3 km/h 4.6 mph /  7.4 km/h 96 % 0.10 in /  2.54 mm
14:40 50.4 °F /  10.2 °C 49.3 °F /  9.6 °C 29.83 in /  1010 hPa East 4.8 mph /  7.7 km/h 6.9 mph /  11.1 km/h 96 % 0.11 in /  2.79 mm
14:45 50.4 °F /  10.2 °C 49.3 °F /  9.6 °C 29.83 in /  1010 hPa East 4.7 mph /  7.6 km/h 7.0 mph /  11.3 km/h 96 % 0.11 in /  2.79 mm
14:50 50.3 °F /  10.2 °C 49.2 °F /  9.6 °C 29.82 in /  1009.7 hPa East 5.4 mph /  8.7 km/h 6.9 mph /  11.1 km/h 96 % 0.11 in /  2.79 mm
14:55 50.3 °F /  10.2 °C 49.2 °F /  9.6 °C 29.82 in /  1009.7 hPa East 6.1 mph /  9.8 km/h 8.1 mph /  13 km/h 96 % 0.10 in /  2.54 mm
15:00 50.2 °F /  10.1 °C 49.1 °F /  9.5 °C 29.82 in /  1009.7 hPa ENE 5.4 mph /  8.7 km/h 6.0 mph /  9.7 km/h 96 % 0.11 in /  2.79 mm
15:05 50.1 °F /  10.1 °C 49.0 °F /  9.4 °C 29.82 in /  1009.7 hPa East 4.9 mph /  7.9 km/h 7.0 mph /  11.3 km/h 96 % 0.11 in /  2.79 mm
15:10 50.1 °F /  10.1 °C 49.3 °F /  9.6 °C 29.82 in /  1009.7 hPa East 5.0 mph /  8 km/h 7.0 mph /  11.3 km/h 97 % 0.00 in /  0 mm
15:15 50.1 °F /  10.1 °C 49.3 °F /  9.6 °C 29.81 in /  1009.4 hPa East 6.6 mph /  10.6 km/h 8.1 mph /  13 km/h 97 % 0.10 in /  2.54 mm
15:20 50.0 °F /  10 °C 49.2 °F /  9.6 °C 29.80 in /  1009 hPa East 7.0 mph /  11.3 km/h 9.0 mph /  14.5 km/h 97 % 0.01 in /  0.25 mm
15:25 50.0 °F /  10 °C 48.9 °F /  9.4 °C 29.80 in /  1009 hPa East 6.0 mph /  9.7 km/h 9.0 mph /  14.5 km/h 96 % 0.00 in /  0 mm
15:30 50.0 °F /  10 °C 49.2 °F /  9.6 °C 29.80 in /  1009 hPa East 7.0 mph /  11.3 km/h 8.0 mph /  12.9 km/h 97 % 0.00 in /  0 mm
15:36 50.1 °F /  10.1 °C 49.3 °F /  9.6 °C 29.80 in /  1009 hPa East 5.0 mph /  8 km/h 8.0 mph /  12.9 km/h 97 % 0.01 in /  0.25 mm
15:41 50.1 °F /  10.1 °C 49.3 °F /  9.6 °C 29.80 in /  1009 hPa East 6.0 mph /  9.7 km/h 9.0 mph /  14.5 km/h 97 % 0.00 in /  0 mm
15:46 50.1 °F /  10.1 °C 49.3 °F /  9.6 °C 29.81 in /  1009.4 hPa East 5.0 mph /  8 km/h 8.0 mph /  12.9 km/h 97 % 0.00 in /  0 mm
15:51 50.0 °F /  10 °C 49.2 °F /  9.6 °C 29.80 in /  1009 hPa East 5.0 mph /  8 km/h 8.0 mph /  12.9 km/h 97 % 0.00 in /  0 mm
15:56 49.6 °F /  9.8 °C 48.5 °F /  9.2 °C 29.80 in /  1009 hPa East 5.0 mph /  8 km/h 10.0 mph /  16.1 km/h 96 % 0.00 in /  0 mm
16:01 49.2 °F /  9.6 °C 48.1 °F /  8.9 °C 29.80 in /  1009 hPa East 6.5 mph /  10.5 km/h 9.2 mph /  14.8 km/h 96 % 0.11 in /  2.79 mm
16:06 48.9 °F /  9.4 °C 47.8 °F /  8.8 °C 29.81 in /  1009.4 hPa East 7.4 mph /  11.9 km/h 10.4 mph /  16.7 km/h 96 % 0.11 in /  2.79 mm
16:11 48.7 °F /  9.3 °C 47.6 °F /  8.7 °C 29.81 in /  1009.4 hPa East 6.3 mph /  10.1 km/h 9.2 mph /  14.8 km/h 96 % 0.10 in /  2.54 mm
16:16 48.5 °F /  9.2 °C 47.4 °F /  8.6 °C 29.81 in /  1009.4 hPa East 6.8 mph /  10.9 km/h 9.2 mph /  14.8 km/h 96 % 0.10 in /  2.54 mm
16:26 48.3 °F /  9.1 °C 47.2 °F /  8.4 °C 29.81 in /  1009.4 hPa East 5.2 mph /  8.4 km/h 6.9 mph /  11.1 km/h 96 % 0.09 in /  2.29 mm
16:31 48.2 °F /  9 °C 47.1 °F /  8.4 °C 29.81 in /  1009.4 hPa East 3.7 mph /  6 km/h 8.1 mph /  13 km/h 96 % 0.08 in /  2.03 mm
16:36 48.2 °F /  9 °C 47.1 °F /  8.4 °C 29.81 in /  1009.4 hPa East 6.9 mph /  11.1 km/h 10.4 mph /  16.7 km/h 96 % 0.07 in /  1.78 mm
16:41 48.1 °F /  8.9 °C 47.0 °F /  8.3 °C 29.80 in /  1009 hPa ENE 5.3 mph /  8.5 km/h 11.5 mph /  18.5 km/h 96 % 0.07 in /  1.78 mm
16:46 48.1 °F /  8.9 °C 47.0 °F /  8.3 °C 29.80 in /  1009 hPa ENE 6.9 mph /  11.1 km/h 9.2 mph /  14.8 km/h 96 % 0.07 in /  1.78 mm
16:51 48.1 °F /  8.9 °C 47.0 °F /  8.3 °C 29.79 in /  1008.7 hPa East 6.3 mph /  10.1 km/h 11.5 mph /  18.5 km/h 96 % 0.08 in /  2.03 mm
16:56 48.1 °F /  8.9 °C 47.0 °F /  8.3 °C 29.79 in /  1008.7 hPa East 6.1 mph /  9.8 km/h 8.1 mph /  13 km/h 96 % 0.08 in /  2.03 mm
17:00 48.1 °F /  8.9 °C 47.0 °F /  8.3 °C 29.79 in /  1008.7 hPa East 7.7 mph /  12.4 km/h 12.7 mph /  20.4 km/h 96 % 0.09 in /  2.29 mm
17:05 48.0 °F /  8.9 °C 46.9 °F /  8.3 °C 29.78 in /  1008.4 hPa East 7.6 mph /  12.2 km/h 9.2 mph /  14.8 km/h 96 % 0.09 in /  2.29 mm
17:10 48.0 °F /  8.9 °C 46.9 °F /  8.3 °C 29.78 in /  1008.4 hPa NE 7.2 mph /  11.6 km/h 11.5 mph /  18.5 km/h 96 % 0.09 in /  2.29 mm
17:12 47.9 °F /  8.8 °C 46.8 °F /  8.2 °C 29.78 in /  1008.4 hPa East 7.7 mph /  12.4 km/h 15.0 mph /  24.1 km/h 96 % 0.09 in /  2.29 mm
17:17 47.9 °F /  8.8 °C 46.8 °F /  8.2 °C 29.78 in /  1008.4 hPa East 8.3 mph /  13.4 km/h 12.7 mph /  20.4 km/h 96 % 0.09 in /  2.29 mm
17:22 47.8 °F /  8.8 °C 46.7 °F /  8.2 °C 29.79 in /  1008.7 hPa ENE 7.6 mph /  12.2 km/h 11.5 mph /  18.5 km/h 96 % 0.09 in /  2.29 mm
17:27 47.9 °F /  8.8 °C 46.8 °F /  8.2 °C 29.79 in /  1008.7 hPa East 6.3 mph /  10.1 km/h 11.5 mph /  18.5 km/h 96 % 0.09 in /  2.29 mm
17:32 48.0 °F /  8.9 °C 46.9 °F /  8.3 °C 29.79 in /  1008.7 hPa ENE 8.1 mph /  13 km/h 11.5 mph /  18.5 km/h 96 % 0.08 in /  2.03 mm
17:37 48.0 °F /  8.9 °C 46.9 °F /  8.3 °C 29.79 in /  1008.7 hPa ENE 7.0 mph /  11.3 km/h 15.0 mph /  24.1 km/h 96 % 0.08 in /  2.03 mm
17:42 47.9 °F /  8.8 °C 46.8 °F /  8.2 °C 29.79 in /  1008.7 hPa ENE 11.1 mph /  17.9 km/h 16.1 mph /  25.9 km/h 96 % 0.08 in /  2.03 mm
17:47 47.8 °F /  8.8 °C 46.7 °F /  8.2 °C 29.78 in /  1008.4 hPa ENE 11.8 mph /  19 km/h 16.1 mph /  25.9 km/h 96 % 0.08 in /  2.03 mm
17:52 47.7 °F /  8.7 °C 46.6 °F /  8.1 °C 29.78 in /  1008.4 hPa ENE 9.1 mph /  14.6 km/h 17.3 mph /  27.8 km/h 96 % 0.08 in /  2.03 mm
17:57 47.7 °F /  8.7 °C 46.6 °F /  8.1 °C 29.78 in /  1008.4 hPa ENE 9.2 mph /  14.8 km/h 16.0 mph /  25.7 km/h 96 % 0.08 in /  2.03 mm
18:02 47.6 °F /  8.7 °C 46.5 °F /  8.1 °C 29.78 in /  1008.4 hPa NE 9.8 mph /  15.8 km/h 15.0 mph /  24.1 km/h 96 % 0.08 in /  2.03 mm
18:07 47.5 °F /  8.6 °C 46.4 °F /  8 °C 29.78 in /  1008.4 hPa ENE 15.1 mph /  24.3 km/h 19.6 mph /  31.5 km/h 96 % 0.08 in /  2.03 mm
18:12 47.4 °F /  8.6 °C 46.3 °F /  7.9 °C 29.78 in /  1008.4 hPa East 9.1 mph /  14.6 km/h 18.4 mph /  29.6 km/h 96 % 0.09 in /  2.29 mm
18:17 47.3 °F /  8.5 °C 46.2 °F /  7.9 °C 29.78 in /  1008.4 hPa NE 10.8 mph /  17.4 km/h 19.0 mph /  30.6 km/h 96 % 0.08 in /  2.03 mm
18:22 47.3 °F /  8.5 °C 46.2 °F /  7.9 °C 29.78 in /  1008.4 hPa East 9.5 mph /  15.3 km/h 15.0 mph /  24.1 km/h 96 % 0.09 in /  2.29 mm
18:27 47.2 °F /  8.4 °C 46.1 °F /  7.8 °C 29.78 in /  1008.4 hPa ENE 13.3 mph /  21.4 km/h 16.1 mph /  25.9 km/h 96 % 0.09 in /  2.29 mm
18:32 47.3 °F /  8.5 °C 46.2 °F /  7.9 °C 29.78 in /  1008.4 hPa ENE 11.6 mph /  18.7 km/h 16.0 mph /  25.7 km/h 96 % 0.09 in /  2.29 mm
18:37 47.2 °F /  8.4 °C 46.1 °F /  7.8 °C 29.78 in /  1008.4 hPa ENE 13.4 mph /  21.6 km/h 23.0 mph /  37 km/h 96 % 0.10 in /  2.54 mm
18:42 47.2 °F /  8.4 °C 46.1 °F /  7.8 °C 29.77 in /  1008 hPa ENE 10.6 mph /  17.1 km/h 18.4 mph /  29.6 km/h 96 % 0.10 in /  2.54 mm
18:47 47.1 °F /  8.4 °C 46.0 °F /  7.8 °C 29.78 in /  1008.4 hPa ENE 13.3 mph /  21.4 km/h 20.7 mph /  33.3 km/h 96 % 0.10 in /  2.54 mm
18:52 46.9 °F /  8.3 °C 45.8 °F /  7.7 °C 29.77 in /  1008 hPa ENE 13.4 mph /  21.6 km/h 21.9 mph /  35.2 km/h 96 % 0.11 in /  2.79 mm
18:57 46.9 °F /  8.3 °C 45.8 °F /  7.7 °C 29.77 in /  1008 hPa ENE 13.9 mph /  22.4 km/h 19.6 mph /  31.5 km/h 96 % 0.11 in /  2.79 mm
19:02 46.8 °F /  8.2 °C 45.7 °F /  7.6 °C 29.77 in /  1008 hPa ENE 12.9 mph /  20.8 km/h 23.0 mph /  37 km/h 96 % 0.12 in /  3.05 mm
19:07 46.8 °F /  8.2 °C 45.7 °F /  7.6 °C 29.77 in /  1008 hPa ENE 15.6 mph /  25.1 km/h 17.3 mph /  27.8 km/h 96 % 0.12 in /  3.05 mm
19:12 46.7 °F /  8.2 °C 45.6 °F /  7.6 °C 29.77 in /  1008 hPa ENE 14.7 mph /  23.7 km/h 26.0 mph /  41.8 km/h 96 % 0.12 in /  3.05 mm
19:18 46.5 °F /  8.1 °C 45.4 °F /  7.4 °C 29.77 in /  1008 hPa ENE 10.8 mph /  17.4 km/h 19.6 mph /  31.5 km/h 96 % 0.12 in /  3.05 mm
19:23 46.5 °F /  8.1 °C 45.4 °F /  7.4 °C 29.77 in /  1008 hPa East 12.1 mph /  19.5 km/h 15.0 mph /  24.1 km/h 96 % 0.13 in /  3.3 mm
19:28 46.8 °F /  8.2 °C 46.0 °F /  7.8 °C 29.77 in /  1008 hPa ENE 14.3 mph /  23 km/h 27.6 mph /  44.4 km/h 97 % 0.13 in /  3.3 mm
19:33 46.5 °F /  8.1 °C 45.4 °F /  7.4 °C 29.76 in /  1007.7 hPa ENE 12.8 mph /  20.6 km/h 18.4 mph /  29.6 km/h 96 % 0.14 in /  3.56 mm
19:38 46.4 °F /  8 °C 45.3 °F /  7.4 °C 29.76 in /  1007.7 hPa East 13.9 mph /  22.4 km/h 18.4 mph /  29.6 km/h 96 % 0.14 in /  3.56 mm
19:43 46.4 °F /  8 °C 45.3 °F /  7.4 °C 29.76 in /  1007.7 hPa ENE 15.0 mph /  24.1 km/h 24.2 mph /  38.9 km/h 96 % 0.14 in /  3.56 mm
19:48 46.2 °F /  7.9 °C 45.1 °F /  7.3 °C 29.76 in /  1007.7 hPa ENE 12.8 mph /  20.6 km/h 19.6 mph /  31.5 km/h 96 % 0.13 in /  3.3 mm
19:53 46.2 °F /  7.9 °C 45.1 °F /  7.3 °C 29.77 in /  1008 hPa NE 11.5 mph /  18.5 km/h 16.1 mph /  25.9 km/h 96 % 0.13 in /  3.3 mm
19:58 46.3 °F /  7.9 °C 45.2 °F /  7.3 °C 29.77 in /  1008 hPa ENE 11.5 mph /  18.5 km/h 17.3 mph /  27.8 km/h 96 % 0.13 in /  3.3 mm
20:03 46.3 °F /  7.9 °C 45.5 °F /  7.5 °C 29.77 in /  1008 hPa NE 8.9 mph /  14.3 km/h 14.0 mph /  22.5 km/h 97 % 0.12 in /  3.05 mm
20:08 46.4 °F /  8 °C 45.3 °F /  7.4 °C 29.77 in /  1008 hPa ENE 11.7 mph /  18.8 km/h 19.6 mph /  31.5 km/h 96 % 0.12 in /  3.05 mm
20:13 46.2 °F /  7.9 °C 45.1 °F /  7.3 °C 29.77 in /  1008 hPa ENE 12.0 mph /  19.3 km/h 16.1 mph /  25.9 km/h 96 % 0.12 in /  3.05 mm
20:18 46.1 °F /  7.8 °C 45.0 °F /  7.2 °C 29.77 in /  1008 hPa ENE 10.6 mph /  17.1 km/h 15.0 mph /  24.1 km/h 96 % 0.12 in /  3.05 mm
20:23 46.3 °F /  7.9 °C 45.5 °F /  7.5 °C 29.77 in /  1008 hPa ENE 12.1 mph /  19.5 km/h 20.7 mph /  33.3 km/h 97 % 0.12 in /  3.05 mm
20:28 46.1 °F /  7.8 °C 45.0 °F /  7.2 °C 29.76 in /  1007.7 hPa ENE 8.7 mph /  14 km/h 13.0 mph /  20.9 km/h 96 % 0.11 in /  2.79 mm
20:33 46.3 °F /  7.9 °C 45.5 °F /  7.5 °C 29.77 in /  1008 hPa East 10.3 mph /  16.6 km/h 13.0 mph /  20.9 km/h 97 % 0.11 in /  2.79 mm
20:38 46.2 °F /  7.9 °C 45.1 °F /  7.3 °C 29.77 in /  1008 hPa ENE 10.0 mph /  16.1 km/h 12.7 mph /  20.4 km/h 96 % 0.11 in /  2.79 mm
20:43 46.4 °F /  8 °C 45.6 °F /  7.6 °C 29.77 in /  1008 hPa NE 4.7 mph /  7.6 km/h 8.1 mph /  13 km/h 97 % 0.11 in /  2.79 mm
20:47 46.5 °F /  8.1 °C 45.7 °F /  7.6 °C 29.77 in /  1008 hPa ENE 9.6 mph /  15.4 km/h 16.0 mph /  25.7 km/h 97 % 0.11 in /  2.79 mm
20:52 46.3 °F /  7.9 °C 45.2 °F /  7.3 °C 29.77 in /  1008 hPa ENE 9.1 mph /  14.6 km/h 12.7 mph /  20.4 km/h 96 % 0.11 in /  2.79 mm
20:57 46.1 °F /  7.8 °C 45.0 °F /  7.2 °C 29.77 in /  1008 hPa East 9.0 mph /  14.5 km/h 12.7 mph /  20.4 km/h 96 % 0.10 in /  2.54 mm
21:02 46.3 °F /  7.9 °C 45.5 °F /  7.5 °C 29.77 in /  1008 hPa NNE 7.3 mph /  11.7 km/h 17.3 mph /  27.8 km/h 97 % 0.10 in /  2.54 mm
21:07 46.5 °F /  8.1 °C 45.7 °F /  7.6 °C 29.76 in /  1007.7 hPa NNE 9.0 mph /  14.5 km/h 16.0 mph /  25.7 km/h 97 % 0.10 in /  2.54 mm
21:12 46.7 °F /  8.2 °C 45.9 °F /  7.7 °C 29.76 in /  1007.7 hPa NE 8.0 mph /  12.9 km/h 11.5 mph /  18.5 km/h 97 % 0.09 in /  2.29 mm
21:17 46.7 °F /  8.2 °C 45.9 °F /  7.7 °C 29.76 in /  1007.7 hPa North 6.4 mph /  10.3 km/h 11.5 mph /  18.5 km/h 97 % 0.08 in /  2.03 mm
21:22 46.7 °F /  8.2 °C 45.9 °F /  7.7 °C 29.76 in /  1007.7 hPa North 9.6 mph /  15.4 km/h 11.5 mph /  18.5 km/h 97 % 0.08 in /  2.03 mm
21:27 46.7 °F /  8.2 °C 45.9 °F /  7.7 °C 29.76 in /  1007.7 hPa North 10.6 mph /  17.1 km/h 16.1 mph /  25.9 km/h 97 % 0.09 in /  2.29 mm
21:32 46.7 °F /  8.2 °C 45.9 °F /  7.7 °C 29.76 in /  1007.7 hPa NE 8.9 mph /  14.3 km/h 18.4 mph /  29.6 km/h 97 % 0.08 in /  2.03 mm
21:38 46.7 °F /  8.2 °C 45.9 °F /  7.7 °C 29.76 in /  1007.7 hPa NNE 6.4 mph /  10.3 km/h 16.0 mph /  25.7 km/h 97 % 0.08 in /  2.03 mm
21:43 46.7 °F /  8.2 °C 45.9 °F /  7.7 °C 29.76 in /  1007.7 hPa NE 9.0 mph /  14.5 km/h 19.6 mph /  31.5 km/h 97 % 0.07 in /  1.78 mm
21:48 46.7 °F /  8.2 °C 45.9 °F /  7.7 °C 29.76 in /  1007.7 hPa NNE 8.6 mph /  13.8 km/h 18.4 mph /  29.6 km/h 97 % 0.07 in /  1.78 mm
21:53 46.6 °F /  8.1 °C 45.8 °F /  7.7 °C 29.76 in /  1007.7 hPa NNE 9.7 mph /  15.6 km/h 13.8 mph /  22.2 km/h 97 % 0.06 in /  1.52 mm
21:58 46.5 °F /  8.1 °C 45.7 °F /  7.6 °C 29.75 in /  1007.3 hPa NE 7.7 mph /  12.4 km/h 19.6 mph /  31.5 km/h 97 % 0.07 in /  1.78 mm
22:03 46.4 °F /  8 °C 45.6 °F /  7.6 °C 29.75 in /  1007.3 hPa North 9.2 mph /  14.8 km/h 20.7 mph /  33.3 km/h 97 % 0.07 in /  1.78 mm
22:08 46.3 °F /  7.9 °C 45.5 °F /  7.5 °C 29.75 in /  1007.3 hPa NNE 13.1 mph /  21.1 km/h 19.6 mph /  31.5 km/h 97 % 0.07 in /  1.78 mm
22:13 46.1 °F /  7.8 °C 45.3 °F /  7.4 °C 29.75 in /  1007.3 hPa NNE 10.9 mph /  17.5 km/h 20.7 mph /  33.3 km/h 97 % 0.08 in /  2.03 mm
22:18 46.0 °F /  7.8 °C 45.2 °F /  7.3 °C 29.76 in /  1007.7 hPa NE 10.9 mph /  17.5 km/h 19.6 mph /  31.5 km/h 97 % 0.09 in /  2.29 mm
22:23 45.9 °F /  7.7 °C 45.1 °F /  7.3 °C 29.75 in /  1007.3 hPa North 9.1 mph /  14.6 km/h 19.6 mph /  31.5 km/h 97 % 0.09 in /  2.29 mm
22:28 45.9 °F /  7.7 °C 45.1 °F /  7.3 °C 29.76 in /  1007.7 hPa NNE 11.9 mph /  19.2 km/h 19.6 mph /  31.5 km/h 97 % 0.09 in /  2.29 mm
22:33 45.9 °F /  7.7 °C 45.1 °F /  7.3 °C 29.76 in /  1007.7 hPa NNE 12.6 mph /  20.3 km/h 20.7 mph /  33.3 km/h 97 % 0.09 in /  2.29 mm
22:38 45.8 °F /  7.7 °C 45.0 °F /  7.2 °C 29.76 in /  1007.7 hPa NNE 11.2 mph /  18 km/h 17.3 mph /  27.8 km/h 97 % 0.09 in /  2.29 mm
22:43 45.8 °F /  7.7 °C 45.0 °F /  7.2 °C 29.76 in /  1007.7 hPa NE 10.7 mph /  17.2 km/h 19.6 mph /  31.5 km/h 97 % 0.08 in /  2.03 mm
22:48 45.8 °F /  7.7 °C 45.0 °F /  7.2 °C 29.75 in /  1007.3 hPa North 9.7 mph /  15.6 km/h 13.8 mph /  22.2 km/h 97 % 0.09 in /  2.29 mm
22:53 45.8 °F /  7.7 °C 45.0 °F /  7.2 °C 29.76 in /  1007.7 hPa NNE 12.3 mph /  19.8 km/h 20.7 mph /  33.3 km/h 97 % 0.08 in /  2.03 mm
22:58 45.8 °F /  7.7 °C 45.0 °F /  7.2 °C 29.75 in /  1007.3 hPa North 15.3 mph /  24.6 km/h 24.2 mph /  38.9 km/h 97 % 0.08 in /  2.03 mm
23:03 45.7 °F /  7.6 °C 44.9 °F /  7.2 °C 29.75 in /  1007.3 hPa North 13.5 mph /  21.7 km/h 25.0 mph /  40.2 km/h 97 % 0.07 in /  1.78 mm
23:08 45.8 °F /  7.7 °C 45.0 °F /  7.2 °C 29.75 in /  1007.3 hPa ENE 11.8 mph /  19 km/h 21.0 mph /  33.8 km/h 97 % 0.06 in /  1.52 mm
23:13 45.8 °F /  7.7 °C 45.0 °F /  7.2 °C 29.75 in /  1007.3 hPa NE 10.9 mph /  17.5 km/h 21.0 mph /  33.8 km/h 97 % 0.05 in /  1.27 mm
23:18 45.9 °F /  7.7 °C 45.1 °F /  7.3 °C 29.75 in /  1007.3 hPa NNE 11.0 mph /  17.7 km/h 17.0 mph /  27.4 km/h 97 % 0.04 in /  1.02 mm
23:23 46.0 °F /  7.8 °C 45.2 °F /  7.3 °C 29.74 in /  1007 hPa ENE 7.8 mph /  12.6 km/h 19.6 mph /  31.5 km/h 97 % 0.04 in /  1.02 mm
23:28 46.1 °F /  7.8 °C 45.3 °F /  7.4 °C 29.74 in /  1007 hPa North 8.7 mph /  14 km/h 11.5 mph /  18.5 km/h 97 % 0.03 in /  0.76 mm
23:33 46.1 °F /  7.8 °C 45.3 °F /  7.4 °C 29.74 in /  1007 hPa East 11.8 mph /  19 km/h 17.3 mph /  27.8 km/h 97 % 0.03 in /  0.76 mm
23:38 46.2 °F /  7.9 °C 45.4 °F /  7.4 °C 29.74 in /  1007 hPa North 10.3 mph /  16.6 km/h 18.0 mph /  29 km/h 97 % 0.03 in /  0.76 mm
23:43 46.3 °F /  7.9 °C 45.5 °F /  7.5 °C 29.74 in /  1007 hPa North 9.1 mph /  14.6 km/h 15.0 mph /  24.1 km/h 97 % 0.04 in /  1.02 mm
23:48 46.4 °F /  8 °C 45.6 °F /  7.6 °C 29.73 in /  1006.7 hPa North 7.4 mph /  11.9 km/h 15.0 mph /  24.1 km/h 97 % 0.04 in /  1.02 mm
23:53 46.5 °F /  8.1 °C 45.7 °F /  7.6 °C 29.74 in /  1007 hPa North 8.1 mph /  13 km/h 20.0 mph /  32.2 km/h 97 % 0.04 in /  1.02 mm
23:58 46.6 °F /  8.1 °C 45.8 °F /  7.7 °C 29.74 in /  1007 hPa NNE 9.6 mph /  15.4 km/h 16.1 mph /  25.9 km/h 97 % 0.05 in /  1.27 mm
Crab Meadow Weather
Compliments of Weather Underground - 3 mb

Script developed by  Jim McMurry - jmcmurry@mwt.net Adapted for the template by  Wim van der Kuil - Leuven-Template.eu

Weather Terms: Wind Chill - An apparent temperature that describes the combined effect of wind and low temperature on exposed skin.